Time;durP1;ratioP1;P1;durP2;ratioP2;P2;SDS_P1;SDS_P2;PMS_P1;PMS_P2;Temp;Humidity;BMP_temperature;BMP_pressure;BME280_temperature;BME280_humidity;BME280_pressure;Samples;Min_cycle;Max_cycle;Signal;HPM_P1;HPM_P2
2022/04/13 00:00:59;;;;;;;15.90;7.77;;;9.40;86.30;;;;;;4973305;28;20222;-82
2022/04/13 00:03:24;;;;;;;14.40;7.83;;;9.30;86.70;;;;;;4973422;28;20174;-82
2022/04/13 00:05:50;;;;;;;22.00;8.80;;;9.30;87.10;;;;;;4973214;28;20262;-82
2022/04/13 00:08:15;;;;;;;15.30;8.13;;;9.20;87.30;;;;;;4973617;28;20205;-82
2022/04/13 00:10:43;;;;;;;15.50;7.93;;;9.10;87.50;;;;;;4973730;28;20186;-82
2022/04/13 00:13:08;;;;;;;21.30;9.23;;;8.90;88.00;;;;;;4973234;28;20621;-82
2022/04/13 00:15:34;;;;;;;15.97;7.47;;;8.90;87.90;;;;;;4973251;28;20558;-83
2022/04/13 00:18:05;;;;;;;15.30;8.00;;;8.80;88.20;;;;;;4974384;28;20182;-82
2022/04/13 00:20:31;;;;;;;14.10;7.57;;;8.70;88.60;;;;;;4972981;28;20641;-82
2022/04/13 00:22:56;;;;;;;17.57;7.60;;;8.60;88.50;;;;;;4973421;28;20505;-82
2022/04/13 00:25:22;;;;;;;15.13;7.00;;;8.60;88.70;;;;;;4973264;28;20194;-82
2022/04/13 00:27:47;;;;;;;16.70;8.07;;;8.60;88.90;;;;;;4973031;28;20183;-82
2022/04/13 00:30:13;;;;;;;19.07;7.20;;;8.60;89.00;;;;;;4973379;28;20202;-82
2022/04/13 00:32:38;;;;;;;17.70;7.40;;;8.60;89.00;;;;;;4973621;28;20656;-82
2022/04/13 00:35:05;;;;;;;14.17;7.13;;;8.60;89.10;;;;;;4973413;28;20711;-82
2022/04/13 00:37:31;;;;;;;15.90;8.00;;;8.60;89.10;;;;;;4973042;28;20182;-82
2022/04/13 00:39:57;;;;;;;20.13;8.83;;;8.60;89.10;;;;;;4974162;28;20578;-82
2022/04/13 00:42:24;;;;;;;14.60;7.13;;;8.60;89.10;;;;;;4973095;28;20938;-82
2022/04/13 00:44:49;;;;;;;14.60;7.33;;;8.60;89.00;;;;;;4973265;28;20456;-82
2022/04/13 00:47:15;;;;;;;18.93;8.23;;;8.60;89.00;;;;;;4973333;28;20508;-82
2022/04/13 00:49:41;;;;;;;13.00;6.90;;;8.60;88.90;;;;;;4973744;28;20230;-82
2022/04/13 00:52:07;;;;;;;15.10;7.80;;;8.50;88.80;;;;;;4974031;28;20186;-82
2022/04/13 00:54:34;;;;;;;16.17;8.37;;;8.50;88.90;;;;;;4973768;28;20265;-82
2022/04/13 00:57:09;;;;;;;15.50;7.50;;;8.50;88.90;;;;;;4973331;28;20421;-82
2022/04/13 00:59:39;;;;;;;18.00;8.17;;;8.50;89.00;;;;;;4972976;28;20812;-82
2022/04/13 01:02:08;;;;;;;21.03;6.87;;;8.40;89.30;;;;;;4973159;28;20987;-81
2022/04/13 01:04:35;;;;;;;15.03;6.70;;;8.40;89.30;;;;;;4989016;28;20446;-82
2022/04/13 01:07:03;;;;;;;13.80;7.47;;;8.40;89.40;;;;;;4973348;28;20841;-81
2022/04/13 01:09:30;;;;;;;14.17;6.53;;;8.40;89.60;;;;;;4973158;28;20557;-82
2022/04/13 01:11:55;;;;;;;15.73;7.50;;;8.40;89.70;;;;;;4973033;28;20465;-82
2022/04/13 01:14:21;;;;;;;16.80;7.07;;;8.40;89.70;;;;;;4973409;28;20557;-82
2022/04/13 01:16:47;;;;;;;16.30;7.07;;;8.40;89.70;;;;;;4972719;28;20229;-82
2022/04/13 01:19:16;;;;;;;14.10;6.57;;;8.40;89.50;;;;;;4972494;28;20210;-82
2022/04/13 01:21:47;;;;;;;14.07;7.23;;;8.40;89.60;;;;;;4973217;28;20206;-82
2022/04/13 01:24:14;;;;;;;13.87;6.80;;;8.40;89.50;;;;;;4972817;28;20449;-82
2022/04/13 01:26:40;;;;;;;20.87;8.60;;;8.40;89.40;;;;;;4974069;28;20516;-82
2022/04/13 01:29:06;;;;;;;17.57;8.00;;;8.40;89.60;;;;;;4972361;28;20544;-82
2022/04/13 01:31:32;;;;;;;16.43;7.70;;;8.40;89.70;;;;;;4972260;28;20175;-82
2022/04/13 01:33:59;;;;;;;22.33;7.90;;;8.40;89.70;;;;;;4972525;28;20433;-82
2022/04/13 01:36:26;;;;;;;18.30;8.33;;;8.30;89.80;;;;;;4988445;28;20444;-82
2022/04/13 01:38:51;;;;;;;14.90;7.13;;;8.30;89.90;;;;;;4973423;28;20414;-82
2022/04/13 01:41:17;;;;;;;13.70;7.17;;;8.30;90.10;;;;;;4972927;28;20441;-82
2022/04/13 01:43:43;;;;;;;13.90;7.20;;;8.20;90.20;;;;;;4972552;28;20449;-82
2022/04/13 01:46:08;;;;;;;22.93;9.07;;;8.20;90.30;;;;;;4972238;28;20183;-82
2022/04/13 01:48:34;;;;;;;15.77;7.43;;;8.20;90.30;;;;;;4972209;28;20742;-81
2022/04/13 01:50:59;;;;;;;14.20;7.37;;;8.20;90.40;;;;;;4972365;28;20175;-82
2022/04/13 01:53:26;;;;;;;15.27;6.93;;;8.20;90.50;;;;;;4975456;28;20178;-82
2022/04/13 01:55:53;;;;;;;18.23;7.80;;;8.20;90.50;;;;;;4977882;28;20640;-82
2022/04/13 01:58:22;;;;;;;15.03;7.03;;;8.10;90.50;;;;;;4976507;28;20943;-82
2022/04/13 02:00:51;;;;;;;15.10;7.10;;;8.10;90.60;;;;;;4975894;28;20465;-82
2022/04/13 02:03:18;;;;;;;18.60;8.00;;;8.00;90.80;;;;;;4977100;28;20612;-81
2022/04/13 02:05:44;;;;;;;16.60;7.43;;;8.00;90.90;;;;;;4976402;28;20859;-82
2022/04/13 02:08:09;;;;;;;20.35;7.25;;;8.00;91.00;;;;;;4976664;28;20426;-81
2022/04/13 02:10:35;;;;;;;15.53;7.30;;;7.90;90.90;;;;;;4975968;28;20402;-81
2022/04/13 02:13:00;;;;;;;17.53;7.67;;;7.90;91.00;;;;;;4978342;28;20611;-82
2022/04/13 02:15:26;;;;;;;15.83;7.80;;;7.90;91.00;;;;;;4976150;28;20261;-82
2022/04/13 02:17:51;;;;;;;15.73;6.97;;;7.90;91.40;;;;;;4988481;28;20268;-82
2022/04/13 02:20:17;;;;;;;19.43;7.50;;;7.80;91.40;;;;;;4979905;28;20188;-81
2022/04/13 02:22:45;;;;;;;16.77;8.03;;;7.70;92.00;;;;;;4990641;28;20261;-81
2022/04/13 02:25:10;;;;;;;21.70;7.40;;;7.70;92.10;;;;;;4989061;28;20190;-82
2022/04/13 02:27:36;;;;;;;16.60;7.40;;;7.60;92.40;;;;;;4995680;28;20993;-81
2022/04/13 02:30:03;;;;;;;19.27;7.33;;;7.50;93.10;;;;;;4995598;28;20256;-81
2022/04/13 02:32:28;;;;;;;16.37;7.83;;;7.40;93.40;;;;;;4996204;28;20550;-82
2022/04/13 02:34:54;;;;;;;13.67;6.80;;;7.30;93.60;;;;;;4996396;28;20437;-81
2022/04/13 02:37:19;;;;;;;13.60;7.00;;;7.20;93.40;;;;;;4995807;28;20185;-81
2022/04/13 02:39:45;;;;;;;14.07;6.77;;;7.10;93.80;;;;;;4996026;28;20197;-81
2022/04/13 02:42:15;;;;;;;16.17;7.30;;;7.00;94.40;;;;;;5012034;28;20228;-81
2022/04/13 02:44:44;;;;;;;18.20;7.60;;;7.00;94.40;;;;;;4995316;28;20232;-81
2022/04/13 02:47:10;;;;;;;15.00;6.80;;;6.90;94.60;;;;;;4996145;28;20484;-81
2022/04/13 02:49:36;;;;;;;16.60;7.73;;;6.90;94.80;;;;;;4995555;28;20460;-82
2022/04/13 02:52:02;;;;;;;19.10;8.00;;;6.80;95.00;;;;;;4996302;28;20440;-81
2022/04/13 02:54:27;;;;;;;11.07;6.30;;;6.80;95.30;;;;;;4995452;28;20432;-81
2022/04/13 02:56:53;;;;;;;15.70;6.70;;;6.80;95.10;;;;;;5011297;28;20472;-81
2022/04/13 02:59:18;;;;;;;12.53;6.60;;;6.70;95.10;;;;;;4996407;28;20201;-81
2022/04/13 03:01:44;;;;;;;15.17;6.67;;;6.70;95.50;;;;;;4995433;28;20230;-81
2022/04/13 03:04:10;;;;;;;14.27;7.10;;;6.60;95.70;;;;;;4994461;28;20767;-81
2022/04/13 03:06:36;;;;;;;13.83;6.70;;;6.60;95.80;;;;;;4996427;28;20182;-81
2022/04/13 03:09:03;;;;;;;17.37;7.33;;;6.50;95.80;;;;;;5011138;28;20484;-80
2022/04/13 03:11:29;;;;;;;15.00;6.83;;;6.50;95.90;;;;;;4995621;28;20209;-80
2022/04/13 03:13:55;;;;;;;19.03;8.03;;;6.50;96.10;;;;;;4995488;28;21009;-80
2022/04/13 03:16:21;;;;;;;14.30;7.60;;;6.40;96.50;;;;;;4995454;28;20417;-81
2022/04/13 03:18:46;;;;;;;15.37;7.20;;;6.40;96.90;;;;;;4994693;28;20425;-80
2022/04/13 03:21:12;;;;;;;18.20;7.50;;;6.30;96.90;;;;;;4994732;28;20276;-80
2022/04/13 03:23:37;;;;;;;14.27;7.20;;;6.30;96.90;;;;;;4994902;28;20206;-81
2022/04/13 03:26:03;;;;;;;14.03;7.03;;;6.10;97.00;;;;;;5010952;28;20192;-80
2022/04/13 03:28:28;;;;;;;15.03;6.87;;;6.10;97.10;;;;;;4994799;28;20190;-81
2022/04/13 03:30:54;;;;;;;14.97;7.70;;;6.00;97.30;;;;;;4994003;28;20518;-80
2022/04/13 03:33:19;;;;;;;17.77;7.77;;;6.00;97.30;;;;;;5011609;28;20648;-81
2022/04/13 03:35:45;;;;;;;19.27;8.23;;;6.00;97.30;;;;;;5011728;28;20611;-82
2022/04/13 03:38:11;;;;;;;13.80;7.23;;;5.90;97.30;;;;;;4994849;28;20178;-81
2022/04/13 03:40:36;;;;;;;15.17;7.87;;;5.90;97.30;;;;;;4994206;28;20189;-81
2022/04/13 03:43:02;;;;;;;13.63;7.27;;;5.90;97.30;;;;;;4994561;28;20541;-82
2022/04/13 03:45:27;;;;;;;15.00;6.93;;;5.80;97.30;;;;;;4993759;28;20260;-81
2022/04/13 03:47:53;;;;;;;17.90;8.10;;;5.90;97.30;;;;;;4994690;28;20484;-82
2022/04/13 03:50:19;;;;;;;16.57;8.50;;;5.90;97.30;;;;;;5010625;28;20198;-82
2022/04/13 03:52:44;;;;;;;16.60;6.83;;;5.90;97.30;;;;;;4993921;28;20185;-82
2022/04/13 03:55:10;;;;;;;18.30;8.40;;;5.90;97.30;;;;;;4994269;28;20197;-82
2022/04/13 03:57:37;;;;;;;18.17;7.50;;;5.80;97.30;;;;;;5011174;28;20648;-82
2022/04/13 04:00:07;;;;;;;15.60;6.80;;;5.80;97.30;;;;;;4994101;28;20410;-81
2022/04/13 04:02:37;;;;;;;13.77;7.00;;;5.70;97.30;;;;;;4994395;28;20476;-82
2022/04/13 04:05:03;;;;;;;18.50;7.00;;;5.70;97.30;;;;;;4995878;28;20491;-81
2022/04/13 04:07:28;;;;;;;18.13;7.70;;;5.70;97.30;;;;;;4994104;28;20452;-81
2022/04/13 04:09:54;;;;;;;15.93;6.80;;;5.70;97.30;;;;;;4994682;28;20697;-81
2022/04/13 04:12:20;;;;;;;14.93;7.90;;;5.70;97.30;;;;;;5010571;28;20186;-82
2022/04/13 04:14:46;;;;;;;20.67;8.90;;;5.60;97.30;;;;;;4994039;28;20194;-81
2022/04/13 04:17:11;;;;;;;13.20;6.83;;;5.60;97.30;;;;;;4995870;28;20553;-80
2022/04/13 04:19:37;;;;;;;16.83;7.30;;;5.60;97.30;;;;;;4996094;28;20182;-81
2022/04/13 04:22:03;;;;;;;19.60;6.83;;;5.60;97.30;;;;;;5010821;28;20236;-81
2022/04/13 04:24:28;;;;;;;15.83;7.43;;;5.60;97.30;;;;;;4994339;28;20300;-81
2022/04/13 04:26:54;;;;;;;12.57;6.17;;;5.60;97.30;;;;;;4994234;28;20935;-82
2022/04/13 04:29:20;;;;;;;17.10;6.87;;;5.60;97.30;;;;;;4994478;28;20217;-81
2022/04/13 04:31:53;;;;;;;18.73;8.23;;;5.50;97.30;;;;;;4993770;28;20414;-82
2022/04/13 04:34:21;;;;;;;20.47;7.90;;;5.50;97.30;;;;;;4993923;28;20250;-82
2022/04/13 04:36:46;;;;;;;16.00;7.17;;;5.50;97.30;;;;;;4993304;28;20421;-82
2022/04/13 04:39:12;;;;;;;12.27;6.80;;;5.50;97.30;;;;;;5010058;28;20417;-82
2022/04/13 04:41:40;;;;;;;11.77;5.93;;;5.40;97.30;;;;;;4995171;28;20269;-82
2022/04/13 04:44:08;;;;;;;14.60;7.40;;;5.40;97.30;;;;;;4993594;28;20437;-82
2022/04/13 04:46:34;;;;;;;15.43;7.07;;;5.40;97.30;;;;;;4994640;28;20429;-82
2022/04/13 04:48:59;;;;;;;14.60;7.87;;;5.40;97.30;;;;;;4994451;28;20540;-81
2022/04/13 04:51:25;;;;;;;21.43;9.27;;;5.50;97.30;;;;;;4993983;28;20185;-81
2022/04/13 04:53:50;;;;;;;15.90;8.13;;;5.50;97.30;;;;;;4992625;28;20537;-82
2022/04/13 04:56:16;;;;;;;18.57;8.10;;;5.60;97.30;;;;;;4993670;28;20539;-82
2022/04/13 04:58:42;;;;;;;17.83;8.03;;;5.60;97.30;;;;;;4992691;28;20185;-82
2022/04/13 05:01:09;;;;;;;18.37;8.70;;;5.60;97.30;;;;;;4992689;28;20476;-82
2022/04/13 05:03:35;;;;;;;21.83;7.97;;;5.70;97.30;;;;;;4993415;28;20273;-82
2022/04/13 05:06:00;;;;;;;22.33;8.50;;;5.70;97.30;;;;;;4994463;28;20522;-82
2022/04/13 05:08:26;;;;;;;14.80;7.30;;;5.80;97.30;;;;;;4993497;28;20254;-82
2022/04/13 05:10:51;;;;;;;21.13;9.73;;;5.80;97.30;;;;;;4994795;28;20578;-81
2022/04/13 05:13:18;;;;;;;16.40;8.67;;;5.90;97.30;;;;;;4994448;28;20224;-82
2022/04/13 05:15:45;;;;;;;20.13;8.30;;;5.90;97.30;;;;;;4993658;28;20193;-82
2022/04/13 05:18:11;;;;;;;14.97;6.93;;;6.00;97.30;;;;;;4994062;28;20507;-82
2022/04/13 05:20:37;;;;;;;16.70;8.10;;;6.10;97.30;;;;;;5010303;28;20420;-82
2022/04/13 05:23:02;;;;;;;19.23;8.20;;;6.30;97.30;;;;;;4984599;28;20433;-82
2022/04/13 05:25:28;;;;;;;19.03;7.60;;;6.40;97.30;;;;;;4973465;28;20213;-82
2022/04/13 05:27:53;;;;;;;13.30;6.90;;;6.50;97.30;;;;;;4976498;28;20174;-82
2022/04/13 05:30:19;;;;;;;16.30;7.43;;;6.70;97.30;;;;;;4977766;28;20345;-82
2022/04/13 05:32:56;;;;;;;14.23;7.20;;;6.80;97.30;;;;;;4977788;28;20186;-82
2022/04/13 05:35:22;;;;;;;20.50;7.20;;;6.90;97.30;;;;;;4977848;28;20282;-82
2022/04/13 05:37:47;;;;;;;15.93;7.53;;;7.00;97.30;;;;;;4977483;28;20496;-82
2022/04/13 05:40:13;;;;;;;18.87;8.33;;;7.10;97.30;;;;;;4977498;28;20178;-82
2022/04/13 05:42:39;;;;;;;21.10;7.67;;;7.20;97.30;;;;;;4977630;28;20193;-82
2022/04/13 05:45:05;;;;;;;20.83;7.77;;;7.30;97.10;;;;;;4990358;28;20197;-82
2022/04/13 05:47:30;;;;;;;18.40;8.13;;;7.40;96.60;;;;;;4999108;28;20206;-82
2022/04/13 05:49:56;;;;;;;15.83;7.60;;;7.50;96.80;;;;;;5014398;28;20453;-82
2022/04/13 05:52:21;;;;;;;26.40;8.20;;;7.60;96.70;;;;;;5000220;28;20186;-82
2022/04/13 05:54:47;;;;;;;20.40;7.97;;;7.80;96.30;;;;;;4998111;28;20200;-82
2022/04/13 05:57:13;;;;;;;21.13;9.13;;;7.90;96.10;;;;;;4998583;28;20205;-82
2022/04/13 05:59:38;;;;;;;15.50;8.33;;;8.00;95.70;;;;;;4998295;28;20189;-82
2022/04/13 06:02:04;;;;;;;23.37;8.80;;;8.10;95.60;;;;;;4997735;28;20658;-82
2022/04/13 06:04:30;;;;;;;16.60;8.10;;;8.20;95.20;;;;;;4997802;28;20217;-83
2022/04/13 06:06:59;;;;;;;14.83;7.70;;;8.40;94.80;;;;;;4996864;28;20651;-82
2022/04/13 06:09:24;;;;;;;16.53;8.37;;;8.50;94.90;;;;;;4996375;28;20472;-82
2022/04/13 06:11:50;;;;;;;21.50;7.50;;;8.60;94.10;;;;;;4996927;28;20463;-83
2022/04/13 06:14:16;;;;;;;16.47;7.20;;;8.80;94.30;;;;;;5011853;28;20209;-82
2022/04/13 06:16:42;;;;;;;14.90;7.47;;;8.90;94.20;;;;;;4996335;28;20205;-83
2022/04/13 06:19:08;;;;;;;17.80;7.17;;;9.00;93.60;;;;;;4996560;28;20451;-83
2022/04/13 06:21:33;;;;;;;17.47;8.20;;;9.20;93.50;;;;;;4997230;28;20264;-83
2022/04/13 06:23:59;;;;;;;17.70;7.30;;;9.30;93.20;;;;;;4995463;28;20440;-83
2022/04/13 06:26:24;;;;;;;16.03;8.03;;;9.50;92.80;;;;;;5012253;28;20193;-83
2022/04/13 06:28:50;;;;;;;16.83;7.27;;;9.60;92.90;;;;;;4995186;28;20649;-83
2022/04/13 06:31:15;;;;;;;14.60;8.13;;;9.70;92.80;;;;;;4994342;28;20176;-82
2022/04/13 06:33:41;;;;;;;16.90;7.70;;;9.90;91.90;;;;;;4993752;28;20194;-83
2022/04/13 06:36:08;;;;;;;18.30;8.00;;;10.00;91.90;;;;;;4995656;28;20667;-83
2022/04/13 06:38:34;;;;;;;16.00;7.33;;;10.20;91.50;;;;;;4994705;28;20170;-82
2022/04/13 06:40:59;;;;;;;18.50;7.80;;;10.40;91.00;;;;;;4994201;28;20456;-82
2022/04/13 06:43:25;;;;;;;15.90;6.90;;;10.50;90.80;;;;;;4993193;28;20173;-82
2022/04/13 06:45:53;;;;;;;12.00;7.40;;;10.70;90.90;;;;;;4993695;28;20180;-82
2022/04/13 06:48:19;;;;;;;17.13;7.93;;;10.80;90.60;;;;;;4994768;28;20182;-82
2022/04/13 06:50:45;;;;;;;24.43;8.63;;;10.90;90.10;;;;;;4990763;28;20708;-83
2022/04/13 06:53:10;;;;;;;17.13;6.90;;;11.10;89.60;;;;;;4975565;28;20441;-83
2022/04/13 06:55:39;;;;;;;11.77;6.30;;;11.20;89.40;;;;;;4973413;28;20195;-83
2022/04/13 06:58:04;;;;;;;16.90;6.53;;;11.30;89.40;;;;;;4973150;28;20181;-83
2022/04/13 07:00:30;;;;;;;18.23;7.30;;;11.50;89.50;;;;;;4972602;28;20416;-83
2022/04/13 07:02:57;;;;;;;15.40;7.63;;;11.70;88.50;;;;;;4972946;28;20178;-83
2022/04/13 07:05:24;;;;;;;16.93;6.77;;;11.90;87.50;;;;;;4988534;28;20230;-84
2022/04/13 07:07:49;;;;;;;18.20;7.20;;;12.10;86.70;;;;;;4973547;28;20520;-84
2022/04/13 07:10:15;;;;;;;14.47;6.90;;;12.30;87.60;;;;;;4971881;28;20505;-84
2022/04/13 07:12:41;;;;;;;17.07;6.77;;;12.50;86.40;;;;;;4972208;28;20170;-84
2022/04/13 07:15:06;;;;;;;15.37;6.57;;;12.60;85.60;;;;;;4971927;28;20199;-84
2022/04/13 07:17:32;;;;;;;16.17;6.73;;;12.80;84.70;;;;;;4972130;28;20636;-84
2022/04/13 07:19:58;;;;;;;13.37;6.43;;;12.90;84.40;;;;;;4971741;28;20505;-84
2022/04/13 07:22:24;;;;;;;10.13;5.73;;;13.10;83.80;;;;;;4971972;28;20187;-84
2022/04/13 07:24:50;;;;;;;16.43;6.90;;;13.20;84.50;;;;;;4971841;28;20206;-84
2022/04/13 07:27:16;;;;;;;17.53;6.93;;;13.30;83.20;;;;;;4971917;28;20425;-84
2022/04/13 07:29:42;;;;;;;14.17;6.07;;;13.40;84.10;;;;;;4971722;28;20496;-84
2022/04/13 07:32:07;;;;;;;11.57;6.13;;;13.40;82.90;;;;;;4971858;28;20269;-84
2022/04/13 07:34:34;;;;;;;12.73;6.20;;;13.50;83.30;;;;;;4971890;28;20201;-84
2022/04/13 07:36:59;;;;;;;14.03;7.30;;;13.70;82.90;;;;;;4971635;28;20174;-84
2022/04/13 07:39:25;;;;;;;17.87;6.90;;;13.80;81.80;;;;;;4971462;28;20912;-84
2022/04/13 07:41:50;;;;;;;21.93;7.23;;;13.90;81.50;;;;;;4971650;28;20659;-84
2022/04/13 07:44:18;;;;;;;17.93;7.67;;;14.00;82.30;;;;;;4971706;28;20231;-84
2022/04/13 07:46:43;;;;;;;15.37;6.20;;;14.10;83.30;;;;;;4971818;28;20594;-84
2022/04/13 07:49:09;;;;;;;17.57;6.70;;;14.20;82.10;;;;;;4971441;28;20469;-84
2022/04/13 07:51:35;;;;;;;18.50;7.27;;;14.30;82.20;;;;;;4971302;28;20230;-84
2022/04/13 07:54:03;;;;;;;16.30;7.37;;;14.40;82.40;;;;;;4987630;28;20743;-84
2022/04/13 07:56:29;;;;;;;15.70;7.30;;;14.50;82.10;;;;;;4971655;28;20178;-84
2022/04/13 07:58:55;;;;;;;15.43;7.33;;;14.60;82.70;;;;;;4971246;28;20441;-84
2022/04/13 08:01:20;;;;;;;20.80;6.93;;;14.80;82.30;;;;;;4971370;28;20521;-84
2022/04/13 08:03:46;;;;;;;13.90;6.47;;;15.00;81.70;;;;;;4971103;28;20198;-85
2022/04/13 08:06:12;;;;;;;13.77;6.40;;;15.20;81.90;;;;;;4971080;28;20633;-84
2022/04/13 08:08:38;;;;;;;15.80;7.33;;;15.30;80.90;;;;;;4970909;28;20649;-85
2022/04/13 08:11:05;;;;;;;12.03;6.13;;;15.40;82.00;;;;;;4971073;28;20756;-84
2022/04/13 08:13:31;;;;;;;13.80;6.83;;;15.50;81.50;;;;;;4971107;28;20953;-84
2022/04/13 08:15:56;;;;;;;11.07;6.07;;;15.60;81.00;;;;;;4970835;28;20427;-84
2022/04/13 08:18:22;;;;;;;14.20;6.10;;;15.60;80.80;;;;;;4971028;28;20410;-85
2022/04/13 08:20:49;;;;;;;15.63;6.00;;;15.70;80.70;;;;;;4970927;28;20263;-85
2022/04/13 08:23:15;;;;;;;14.20;6.27;;;15.70;79.90;;;;;;4971218;28;20217;-85
2022/04/13 08:25:41;;;;;;;11.87;6.37;;;15.80;79.70;;;;;;4971060;28;20461;-85
2022/04/13 08:28:06;;;;;;;11.30;7.20;;;15.90;80.00;;;;;;4970907;28;20414;-85
2022/04/13 08:30:32;;;;;;;14.20;6.57;;;16.00;80.00;;;;;;4970850;28;20194;-85
2022/04/13 08:32:58;;;;;;;12.67;6.20;;;16.20;79.30;;;;;;4986851;28;20269;-85
2022/04/13 08:35:23;;;;;;;11.57;6.20;;;16.30;79.50;;;;;;4971936;28;20237;-84
2022/04/13 08:37:49;;;;;;;10.70;5.87;;;16.40;79.30;;;;;;4970595;28;20537;-85
2022/04/13 08:40:16;;;;;;;13.73;6.27;;;16.50;78.20;;;;;;4982058;28;20178;-85
2022/04/13 08:42:59;;;;;;;19.50;6.30;;;16.60;77.60;;;;;;4989879;28;20197;-85
2022/04/13 08:45:30;;;;;;;11.60;5.97;;;16.70;78.40;;;;;;5006132;28;20962;-85
2022/04/13 08:47:59;;;;;;;15.30;6.60;;;16.90;77.40;;;;;;4989858;28;20421;-85
2022/04/13 08:50:30;;;;;;;12.70;5.37;;;16.90;77.10;;;;;;4989549;28;20993;-85
2022/04/13 08:53:02;;;;;;;12.53;6.10;;;17.00;77.90;;;;;;4990292;28;20428;-85
2022/04/13 08:55:29;;;;;;;12.53;6.10;;;17.30;78.80;;;;;;4976382;28;20931;-85
2022/04/13 08:58:11;;;;;;;10.80;5.30;;;17.60;77.40;;;;;;4970744;28;20421;-86
2022/04/13 09:00:40;;;;;;;11.07;5.70;;;17.90;77.40;;;;;;4969984;28;20466;-85
2022/04/13 09:03:32;;;;;;;7.67;4.77;;;18.00;74.70;;;;;;4969508;28;20771;-85
2022/04/13 09:05:59;;;;;;;11.53;5.40;;;18.10;74.60;;;;;;4982693;28;20912;-85
2022/04/13 09:08:49;;;;;;;6.43;3.90;;;18.20;70.70;;;;;;4970260;28;20905;-86
2022/04/13 09:11:15;;;;;;;8.10;5.60;;;18.10;71.60;;;;;;4969923;28;20516;-85
2022/04/13 09:13:43;;;;;;;14.00;6.80;;;18.10;74.60;;;;;;4986966;28;20524;-85
2022/04/13 09:16:09;;;;;;;9.17;6.03;;;18.00;73.70;;;;;;4970188;28;20197;-85
2022/04/13 09:18:35;;;;;;;9.07;5.03;;;18.10;75.40;;;;;;4970461;28;20410;-85
2022/04/13 09:21:01;;;;;;;13.73;5.40;;;18.20;75.60;;;;;;4970381;28;20422;-85
2022/04/13 09:23:28;;;;;;;11.33;5.33;;;18.40;76.30;;;;;;4969836;28;20171;-85
2022/04/13 09:25:55;;;;;;;12.70;5.43;;;18.60;76.10;;;;;;4969921;28;21006;-85
2022/04/13 09:28:21;;;;;;;11.37;6.37;;;18.80;75.30;;;;;;4970149;28;20410;-85
2022/04/13 09:30:46;;;;;;;10.00;5.60;;;18.90;73.50;;;;;;4970133;28;20532;-86
2022/04/13 09:33:13;;;;;;;11.60;5.87;;;18.90;74.40;;;;;;4970498;28;20206;-85
2022/04/13 09:35:38;;;;;;;10.80;5.83;;;19.00;73.40;;;;;;4969860;28;20830;-85
2022/04/13 09:38:07;;;;;;;9.40;4.90;;;19.00;73.80;;;;;;4969892;28;20311;-85
2022/04/13 09:40:33;;;;;;;10.07;5.23;;;19.10;74.30;;;;;;4969968;28;20191;-85
2022/04/13 09:43:08;;;;;;;8.90;5.30;;;19.20;74.30;;;;;;4985938;28;20461;-86
2022/04/13 09:45:36;;;;;;;9.20;5.93;;;19.20;72.40;;;;;;4969837;28;20238;-85
2022/04/13 09:48:06;;;;;;;9.10;5.10;;;19.30;73.20;;;;;;4970055;28;20449;-85
2022/04/13 09:50:32;;;;;;;12.27;5.70;;;19.40;73.30;;;;;;4969886;28;20471;-85
2022/04/13 09:53:03;;;;;;;11.70;5.53;;;19.40;73.00;;;;;;4969830;28;20436;-85
2022/04/13 09:55:29;;;;;;;8.67;5.20;;;19.50;73.00;;;;;;4969817;28;20477;-85
2022/04/13 09:58:25;;;;;;;8.03;5.03;;;19.40;72.40;;;;;;4970036;28;20508;-86
2022/04/13 10:00:53;;;;;;;7.30;4.20;;;19.40;72.10;;;;;;4965477;28;20465;-85
2022/04/13 10:03:20;;;;;;;8.80;5.70;;;19.50;73.20;;;;;;4970244;28;20422;-85
2022/04/13 10:05:49;;;;;;;8.83;5.10;;;19.70;73.70;;;;;;4970152;28;20416;-85
2022/04/13 10:08:18;;;;;;;19.60;5.17;;;19.80;72.80;;;;;;4970020;28;20509;-85
2022/04/13 10:10:45;;;;;;;7.87;5.20;;;19.80;70.80;;;;;;4970030;28;20468;-85
2022/04/13 10:13:12;;;;;;;8.67;5.10;;;19.70;71.40;;;;;;4969778;28;20414;-86
2022/04/13 10:15:37;;;;;;;10.07;4.90;;;19.80;72.30;;;;;;4974271;28;20441;-85
2022/04/13 10:18:05;;;;;;;11.47;5.60;;;20.00;72.40;;;;;;4973556;28;20418;-85
2022/04/13 10:20:44;;;;;;;11.07;5.40;;;20.10;71.70;;;;;;4973629;28;20774;-85
2022/04/13 10:23:11;;;;;;;8.73;4.83;;;20.20;69.30;;;;;;4973368;28;20429;-85
2022/04/13 10:25:37;;;;;;;10.63;5.40;;;20.30;70.90;;;;;;4974366;28;20429;-85
2022/04/13 10:28:03;;;;;;;10.47;5.33;;;20.30;69.80;;;;;;4972887;28;20429;-85
2022/04/13 10:30:31;;;;;;;10.17;5.30;;;20.40;70.80;;;;;;4972907;28;20476;-85
2022/04/13 10:33:06;;;;;;;10.13;5.33;;;20.50;70.50;;;;;;4989312;28;20414;-85
2022/04/13 10:35:34;;;;;;;11.63;6.27;;;20.50;70.50;;;;;;4973056;28;20434;-85
2022/04/13 10:38:00;;;;;;;10.67;5.73;;;20.60;70.70;;;;;;4972742;28;20912;-85
2022/04/13 10:40:30;;;;;;;8.77;4.80;;;20.50;70.00;;;;;;4972555;28;20973;-85
2022/04/13 10:43:02;;;;;;;9.37;5.60;;;20.60;71.00;;;;;;4972878;28;20426;-85
2022/04/13 10:45:29;;;;;;;10.90;6.00;;;20.60;70.40;;;;;;4976659;28;20940;-85
2022/04/13 10:48:02;;;;;;;15.63;6.30;;;20.60;71.70;;;;;;4991665;28;20421;-85
2022/04/13 10:50:34;;;;;;;10.17;5.90;;;20.80;72.30;;;;;;4992157;28;20874;-85
2022/04/13 10:53:27;;;;;;;9.07;5.80;;;20.90;71.20;;;;;;4993341;28;20496;-85
2022/04/13 10:56:00;;;;;;;8.23;5.00;;;21.10;71.10;;;;;;4992034;28;20516;-85
2022/04/13 10:58:50;;;;;;;7.23;4.93;;;21.30;70.90;;;;;;4992155;28;20409;-85
2022/04/13 11:01:19;;;;;;;8.20;5.80;;;21.30;71.00;;;;;;5007834;28;20524;-85
2022/04/13 11:03:47;;;;;;;10.93;5.40;;;21.50;71.10;;;;;;4991964;28;20852;-85
2022/04/13 11:06:13;;;;;;;11.10;4.77;;;21.40;69.90;;;;;;5008200;28;20417;-85
2022/04/13 11:08:51;;;;;;;12.20;6.37;;;21.40;70.10;;;;;;4991433;28;20424;-86
2022/04/13 11:11:27;;;;;;;10.40;6.30;;;21.30;69.10;;;;;;5008141;28;20938;-83
2022/04/13 11:13:53;;;;;;;10.07;6.67;;;21.30;70.30;;;;;;4991697;28;20436;-82
2022/04/13 11:16:23;;;;;;;12.07;6.10;;;21.30;70.70;;;;;;4991717;28;20417;-82
2022/04/13 11:19:01;;;;;;;9.10;6.10;;;21.30;69.80;;;;;;5008311;28;20449;-85
2022/04/13 11:21:29;;;;;;;16.00;7.03;;;21.30;70.50;;;;;;5007749;28;20431;-85
2022/04/13 11:23:55;;;;;;;10.50;5.60;;;21.30;70.90;;;;;;4972112;28;20445;-85
2022/04/13 11:26:26;;;;;;;11.07;6.40;;;21.30;70.70;;;;;;4971345;28;20532;-85
2022/04/13 11:29:17;;;;;;;14.93;6.57;;;21.40;71.00;;;;;;4971968;28;20505;-85
2022/04/13 11:32:01;;;;;;;11.80;7.27;;;21.60;70.80;;;;;;4971626;28;20950;-85
2022/04/13 11:34:43;;;;;;;11.90;6.47;;;21.80;71.10;;;;;;4988480;28;20426;-85
2022/04/13 11:37:17;;;;;;;12.03;5.90;;;21.90;69.70;;;;;;4987953;28;20461;-85
2022/04/13 11:40:03;;;;;;;9.30;5.50;;;21.90;68.40;;;;;;4971995;28;20927;-85
2022/04/13 11:42:29;;;;;;;7.90;5.40;;;21.90;67.40;;;;;;4971500;28;20784;-85
2022/04/13 11:45:00;;;;;;;9.97;6.47;;;21.90;68.40;;;;;;4987853;28;20438;-85
2022/04/13 11:47:39;;;;;;;8.77;5.20;;;22.10;67.30;;;;;;5007355;28;20177;-84
2022/04/13 11:50:18;;;;;;;10.07;5.60;;;22.20;66.90;;;;;;5007572;28;20475;-85
2022/04/13 11:53:09;;;;;;;10.03;5.70;;;22.30;67.10;;;;;;4992294;28;20405;-85
2022/04/13 11:55:42;;;;;;;7.80;5.20;;;22.50;66.80;;;;;;4990593;28;20437;-85
2022/04/13 11:58:07;;;;;;;12.97;4.90;;;22.50;66.60;;;;;;5007012;28;20471;-85
2022/04/13 12:00:43;;;;;;;9.30;5.50;;;22.70;65.20;;;;;;5006577;28;20405;-85
2022/04/13 12:03:15;;;;;;;11.40;5.70;;;22.80;66.70;;;;;;4990303;28;20217;-85
2022/04/13 12:05:42;;;;;;;12.27;5.67;;;23.00;66.70;;;;;;4990680;28;20503;-85
2022/04/13 12:08:10;;;;;;;10.30;6.27;;;23.30;67.50;;;;;;4990068;28;20409;-85
2022/04/13 12:10:37;;;;;;;11.50;5.80;;;23.50;66.70;;;;;;5006540;28;20551;-85
2022/04/13 12:13:03;;;;;;;10.03;5.70;;;23.70;66.30;;;;;;4991311;28;20412;-85
2022/04/13 12:15:47;;;;;;;13.03;6.17;;;23.70;65.10;;;;;;5006639;28;20432;-85
2022/04/13 12:18:13;;;;;;;11.40;5.83;;;23.80;65.60;;;;;;4989957;28;20428;-84
2022/04/13 12:20:39;;;;;;;12.87;6.70;;;23.90;66.50;;;;;;4990301;28;20611;-85
2022/04/13 12:23:17;;;;;;;8.70;6.30;;;24.00;64.40;;;;;;4977398;28;20920;-85
2022/04/13 12:25:44;;;;;;;12.10;5.80;;;23.90;63.60;;;;;;4970885;28;20417;-85
2022/04/13 12:28:10;;;;;;;10.47;6.07;;;24.00;64.40;;;;;;4972262;28;20433;-85
2022/04/13 12:30:36;;;;;;;12.93;6.53;;;23.80;62.30;;;;;;4971937;28;20827;-85
2022/04/13 12:33:13;;;;;;;12.83;5.70;;;23.70;63.40;;;;;;4971419;28;20171;-85
2022/04/13 12:36:10;;;;;;;11.60;6.10;;;23.90;65.80;;;;;;4970718;28;20198;-85
2022/04/13 12:38:44;;;;;;;9.33;5.80;;;24.20;64.60;;;;;;4970681;28;20422;-85
2022/04/13 12:41:18;;;;;;;11.27;6.10;;;24.20;62.40;;;;;;4972088;28;20429;-85
2022/04/13 12:43:59;;;;;;;10.10;5.40;;;24.20;63.20;;;;;;4970804;28;20434;-85
2022/04/13 12:46:27;;;;;;;13.20;5.50;;;24.30;63.60;;;;;;4982172;28;20425;-85